createdAt,value
2019-04-20T00:01:32.300Z,15.43
2019-04-20T00:04:03.110Z,13.65
2019-04-20T00:06:43.380Z,13.20
2019-04-20T00:09:15.977Z,13.62
2019-04-20T00:11:53.293Z,18.87
2019-04-20T00:14:23.742Z,20.23
2019-04-20T00:16:50.582Z,16.93
2019-04-20T00:19:30.228Z,13.13
2019-04-20T00:22:04.582Z,14.98
2019-04-20T00:24:38.851Z,14.23
2019-04-20T00:27:32.753Z,11.83
2019-04-20T00:29:59.921Z,16.25
2019-04-20T00:32:34.153Z,13.85
2019-04-20T00:34:53.955Z,14.38
2019-04-20T00:37:26.132Z,14.15
2019-04-20T00:39:57.893Z,13.05
2019-04-20T00:42:37.984Z,11.63
2019-04-20T00:45:11.998Z,14.35
2019-04-20T00:47:50.147Z,12.55
2019-04-20T00:50:28.277Z,11.30
2019-04-20T00:52:59.338Z,10.65
2019-04-20T00:55:20.967Z,10.28
2019-04-20T00:57:59.803Z,13.20
2019-04-20T01:00:40.557Z,11.12
2019-04-20T01:03:15.746Z,10.93
2019-04-20T01:06:04.918Z,10.40
2019-04-20T01:08:34.574Z,17.40
2019-04-20T01:11:06.546Z,15.75
2019-04-20T01:13:46.091Z,17.30
2019-04-20T01:16:25.183Z,15.28
2019-04-20T01:18:47.229Z,16.17
2019-04-20T01:21:23.603Z,14.05
2019-04-20T01:23:56.552Z,13.78
2019-04-20T01:29:09.058Z,14.30
2019-04-20T01:31:38.430Z,13.32
2019-04-20T01:34:16.301Z,14.65
2019-04-20T01:36:55.607Z,15.75
2019-04-20T01:39:22.136Z,20.37
2019-04-20T01:41:45.587Z,17.67
2019-04-20T01:44:24.574Z,15.68
2019-04-20T01:46:56.415Z,15.50
2019-04-20T01:49:28.244Z,15.35
2019-04-20T01:52:09.971Z,16.12
2019-04-20T01:57:33.033Z,14.40
2019-04-20T02:00:14.346Z,14.47
2019-04-20T02:03:05.215Z,13.05
2019-04-20T02:05:38.302Z,13.38
2019-04-20T02:10:47.481Z,14.20
2019-04-20T02:13:15.344Z,12.10
2019-04-20T02:15:51.202Z,13.62
2019-04-20T02:21:12.192Z,12.73
2019-04-20T02:23:35.746Z,13.83
2019-04-20T02:28:55.397Z,12.18
2019-04-20T02:31:40.941Z,13.70
2019-04-20T02:34:33.513Z,13.03
2019-04-20T02:42:20.315Z,10.68
2019-04-20T02:44:49.801Z,12.55
2019-04-20T02:47:25.761Z,10.50
2019-04-20T02:49:59.875Z,12.35
2019-04-20T03:02:23.794Z,9.40
2019-04-20T03:04:48.006Z,9.15
2019-04-20T03:10:04.055Z,8.50
2019-04-20T03:12:47.494Z,9.55
2019-04-20T03:15:09.577Z,10.60
2019-04-20T03:17:51.172Z,7.97
2019-04-20T03:20:23.306Z,12.58
2019-04-20T03:28:18.237Z,11.68
2019-04-20T03:33:51.375Z,9.43
2019-04-20T03:36:20.033Z,15.25
2019-04-20T03:38:38.332Z,9.23
2019-04-20T03:41:05.200Z,11.30
2019-04-20T03:43:26.361Z,9.98
2019-04-20T03:46:05.794Z,11.05
2019-04-20T03:48:46.511Z,11.85
2019-04-20T03:51:28.923Z,12.18
2019-04-20T03:54:22.229Z,9.80
2019-04-20T03:57:21.963Z,10.20
2019-04-20T04:00:06.235Z,13.30
2019-04-20T04:03:12.966Z,9.35
2019-04-20T04:05:35.486Z,10.68
2019-04-20T04:08:06.219Z,12.80
2019-04-20T04:10:48.547Z,13.10
2019-04-20T04:13:14.740Z,13.50
2019-04-20T04:15:52.292Z,13.30
2019-04-20T04:18:27.826Z,21.27
2019-04-20T04:21:02.922Z,23.35
2019-04-20T04:23:45.477Z,18.12
2019-04-20T04:28:51.967Z,19.07
2019-04-20T04:31:31.112Z,18.85
2019-04-20T04:33:58.108Z,14.35
2019-04-20T04:39:11.388Z,13.05
2019-04-20T04:41:36.342Z,11.40
2019-04-20T04:44:08.690Z,11.48
2019-04-20T04:49:05.350Z,9.78
2019-04-20T04:51:42.445Z,12.55
2019-04-20T04:54:13.750Z,11.08
2019-04-20T04:56:37.958Z,17.75
2019-04-20T04:59:10.692Z,21.90
2019-04-20T05:01:46.960Z,57.93
2019-04-20T05:04:43.307Z,20.23
2019-04-20T05:07:05.175Z,18.00
2019-04-20T05:09:23.889Z,19.20
2019-04-20T05:11:59.951Z,19.23
2019-04-20T05:17:15.506Z,12.40
2019-04-20T05:19:53.167Z,13.00
2019-04-20T05:22:31.606Z,17.80
2019-04-20T05:25:12.970Z,16.02
2019-04-20T05:27:53.493Z,12.93
2019-04-20T05:30:05.775Z,19.67
2019-04-20T05:32:48.249Z,12.63
2019-04-20T05:35:33.665Z,19.10
2019-04-20T05:38:15.334Z,11.83
2019-04-20T05:40:40.204Z,11.10
2019-04-20T05:45:50.515Z,11.25
2019-04-20T05:48:26.125Z,13.60
2019-04-20T05:51:04.120Z,14.90
2019-04-20T05:53:38.767Z,12.90
2019-04-20T05:56:12.171Z,11.43
2019-04-20T05:58:45.272Z,10.25
2019-04-20T06:01:22.920Z,22.00
2019-04-20T06:03:48.832Z,12.85
2019-04-20T06:06:27.831Z,7.95
2019-04-20T06:09:05.542Z,12.40
2019-04-20T06:11:37.050Z,8.33
2019-04-20T06:14:13.301Z,9.35
2019-04-20T06:17:16.105Z,9.43
2019-04-20T06:19:48.913Z,8.08
2019-04-20T06:25:50.242Z,6.30
2019-04-20T06:27:58.863Z,9.83
2019-04-20T06:30:28.064Z,9.88
2019-04-20T06:34:02.569Z,10.70
2019-04-20T06:36:26.169Z,7.47
2019-04-20T06:41:37.928Z,11.03
2019-04-20T06:43:53.963Z,11.20
2019-04-20T06:46:29.240Z,9.28
2019-04-20T06:49:05.670Z,10.63
2019-04-20T06:51:34.867Z,8.35
2019-04-20T06:54:17.332Z,7.95
2019-04-20T06:57:00.290Z,9.38
2019-04-20T06:59:38.714Z,7.85
2019-04-20T07:02:20.215Z,7.55
2019-04-20T07:10:06.470Z,10.43
2019-04-20T07:12:18.636Z,8.13
2019-04-20T07:14:42.708Z,12.78
2019-04-20T07:17:45.593Z,5.90
2019-04-20T07:20:16.025Z,5.97
2019-04-20T07:23:09.517Z,9.13
2019-04-20T07:25:31.073Z,11.83
2019-04-20T07:28:06.921Z,16.95
2019-04-20T07:30:42.363Z,8.95
2019-04-20T07:33:20.023Z,15.32
2019-04-20T07:35:40.450Z,13.85
2019-04-20T07:40:50.981Z,13.85
2019-04-20T07:43:28.365Z,8.08
2019-04-20T07:46:03.010Z,7.12
2019-04-20T07:50:58.240Z,6.85
2019-04-20T07:53:34.382Z,34.60
2019-04-20T07:56:13.145Z,28.47
2019-04-20T08:02:05.946Z,5.97
2019-04-20T08:04:32.324Z,18.23
2019-04-20T08:06:54.736Z,15.95
2019-04-20T08:09:32.849Z,27.73
2019-04-20T08:12:26.889Z,7.03
2019-04-20T08:14:57.611Z,22.07
2019-04-20T08:17:30.901Z,20.65
2019-04-20T08:22:38.880Z,8.85
2019-04-20T08:24:55.204Z,20.75
2019-04-20T08:27:23.469Z,24.25
2019-04-20T08:30:21.674Z,15.03
2019-04-20T08:33:04.241Z,6.97
2019-04-20T08:35:49.357Z,9.03
2019-04-20T08:38:55.969Z,12.63
2019-04-20T08:40:47.913Z,12.55
2019-04-20T08:43:37.890Z,7.83
2019-04-20T08:46:03.431Z,11.75
2019-04-20T08:48:36.954Z,8.58
2019-04-20T08:51:04.789Z,7.05
2019-04-20T08:53:36.463Z,9.10
2019-04-20T08:56:03.338Z,7.03
2019-04-20T08:58:25.475Z,13.13
2019-04-20T09:01:01.621Z,6.92
2019-04-20T09:03:42.224Z,12.47
2019-04-20T09:06:21.558Z,10.72
2019-04-20T09:11:24.985Z,8.38
2019-04-20T09:13:49.623Z,6.10
2019-04-20T09:16:19.894Z,6.62
2019-04-20T09:18:57.887Z,5.50
2019-04-20T09:21:33.085Z,12.53
2019-04-20T09:24:22.803Z,13.65
2019-04-20T09:29:18.485Z,8.15
2019-04-20T09:34:42.416Z,7.17
2019-04-20T09:37:29.667Z,8.23
2019-04-20T09:40:21.873Z,6.67
2019-04-20T09:42:50.201Z,6.92
2019-04-20T09:45:45.987Z,6.67
2019-04-20T09:48:21.206Z,5.35
2019-04-20T09:51:09.185Z,8.13
2019-04-20T09:53:33.488Z,7.10
2019-04-20T09:56:13.006Z,6.72
2019-04-20T09:58:50.988Z,7.10
2019-04-20T10:01:15.634Z,7.72
2019-04-20T10:03:36.678Z,7.47
2019-04-20T10:06:09.732Z,6.25
2019-04-20T10:11:13.838Z,7.70
2019-04-20T10:13:45.991Z,9.28
2019-04-20T10:16:17.871Z,10.43
2019-04-20T10:18:53.265Z,8.55
2019-04-20T10:21:23.615Z,5.53
2019-04-20T10:23:56.378Z,6.03
2019-04-20T10:26:28.325Z,7.33
2019-04-20T10:28:59.893Z,7.80
2019-04-20T10:31:37.653Z,14.20
2019-04-20T10:34:05.218Z,8.20
2019-04-20T10:36:55.940Z,7.92
2019-04-20T10:39:28.774Z,9.55
2019-04-20T10:42:04.066Z,4.90
2019-04-20T10:44:35.050Z,5.87
2019-04-20T10:47:07.361Z,10.40
2019-04-20T10:49:38.995Z,9.63
2019-04-20T10:52:11.832Z,6.12
2019-04-20T10:54:44.742Z,7.60
2019-04-20T10:57:17.415Z,7.35
2019-04-20T10:59:49.823Z,6.03
2019-04-20T11:02:21.678Z,7.72
2019-04-20T11:04:54.822Z,7.65
2019-04-20T11:07:26.661Z,5.67
2019-04-20T11:10:07.885Z,5.85
2019-04-20T11:12:32.608Z,12.10
2019-04-20T11:15:04.528Z,6.97
2019-04-20T11:17:37.393Z,6.47
2019-04-20T11:20:09.674Z,4.35
2019-04-20T11:22:42.206Z,7.27
2019-04-20T11:25:16.474Z,5.58
2019-04-20T11:27:48.339Z,4.70
2019-04-20T11:30:22.410Z,6.12
2019-04-20T11:35:33.854Z,5.92
2019-04-20T11:37:59.168Z,6.80
2019-04-20T11:40:30.978Z,6.53
2019-04-20T11:43:03.738Z,5.75
2019-04-20T11:45:36.387Z,7.40
2019-04-20T11:48:09.563Z,6.47
2019-04-20T11:50:41.429Z,4.30
2019-04-20T11:53:13.348Z,4.35
2019-04-20T11:55:46.535Z,3.98
2019-04-20T11:58:19.600Z,12.68
2019-04-20T12:03:32.893Z,4.45
2019-04-20T12:06:04.695Z,4.92
2019-04-20T12:08:37.657Z,5.80
2019-04-20T12:11:23.120Z,3.52
2019-04-20T12:13:42.716Z,4.37
2019-04-20T12:16:14.679Z,3.95
2019-04-20T12:18:46.473Z,6.42
2019-04-20T12:21:18.951Z,5.35
2019-04-20T12:23:51.940Z,5.60
2019-04-20T12:26:24.813Z,5.10
2019-04-20T12:28:57.960Z,8.48
2019-04-20T12:31:29.800Z,6.37
2019-04-20T12:34:02.293Z,4.30
2019-04-20T12:36:35.298Z,5.62
2019-04-20T12:39:10.881Z,8.43
2019-04-20T12:41:49.854Z,6.67
2019-04-20T12:44:17.565Z,5.80
2019-04-20T12:46:49.895Z,6.50
2019-04-20T12:49:21.588Z,5.70
2019-04-20T12:51:59.304Z,5.95
2019-04-20T12:54:26.970Z,6.30
2019-04-20T12:56:58.899Z,5.20
2019-04-20T12:59:31.660Z,6.95
2019-04-20T13:02:03.439Z,10.70
2019-04-20T13:04:37.356Z,22.65
2019-04-20T13:07:10.087Z,13.55
2019-04-20T13:09:50.875Z,12.47
2019-04-20T13:12:52.283Z,15.18
2019-04-20T13:15:50.139Z,5.30
2019-04-20T13:18:27.419Z,4.37
2019-04-20T13:21:00.396Z,4.67
2019-04-20T13:23:33.138Z,5.25
2019-04-20T13:26:07.238Z,3.33
2019-04-20T13:28:39.052Z,3.20
2019-04-20T13:31:11.630Z,5.22
2019-04-20T13:33:45.224Z,5.53
2019-04-20T13:36:17.429Z,4.42
2019-04-20T13:38:50.047Z,3.45
2019-04-20T13:41:22.154Z,4.22
2019-04-20T13:46:27.273Z,4.25
2019-04-20T13:48:59.065Z,27.20
2019-04-20T13:51:30.974Z,36.48
2019-04-20T13:54:07.362Z,18.70
2019-04-20T13:56:37.626Z,3.58
2019-04-20T14:02:22.707Z,26.15
2019-04-20T14:04:58.971Z,7.72
2019-04-20T14:07:33.440Z,5.92
2019-04-20T14:10:06.055Z,3.15
2019-04-20T14:12:45.132Z,20.20
2019-04-20T14:15:11.524Z,8.73
2019-04-20T14:17:43.429Z,4.53
2019-04-20T14:20:18.458Z,3.05
2019-04-20T14:22:49.213Z,4.87
2019-04-20T14:25:21.098Z,4.17
2019-04-20T14:27:52.973Z,3.80
2019-04-20T14:30:24.840Z,6.72
2019-04-20T14:32:56.853Z,4.03
2019-04-20T14:35:29.195Z,4.92
2019-04-20T14:38:01.693Z,5.35
2019-04-20T14:40:34.497Z,3.77
2019-04-20T14:43:06.796Z,3.75
2019-04-20T14:45:38.956Z,3.58
2019-04-20T14:48:11.994Z,4.05
2019-04-20T14:50:45.652Z,4.90
2019-04-20T14:53:17.719Z,7.37
2019-04-20T14:55:49.649Z,3.98
2019-04-20T14:58:41.449Z,4.92
2019-04-20T15:01:28.185Z,4.37
2019-04-20T15:04:06.835Z,4.20
2019-04-20T15:06:36.750Z,5.28
2019-04-20T15:09:10.625Z,5.10
2019-04-20T15:11:45.160Z,3.45
2019-04-20T15:14:16.857Z,6.65
2019-04-20T15:16:48.759Z,5.03
2019-04-20T15:19:37.425Z,6.90
2019-04-20T15:22:29.468Z,6.20
2019-04-20T15:25:01.221Z,5.55
2019-04-20T15:27:33.236Z,4.37
2019-04-20T15:30:06.575Z,5.28
2019-04-20T15:32:38.967Z,5.17
2019-04-20T15:35:11.135Z,4.95
2019-04-20T15:37:43.140Z,4.03
2019-04-20T15:40:15.199Z,5.33
2019-04-20T15:42:56.642Z,3.90
2019-04-20T15:45:21.246Z,3.85
2019-04-20T15:47:54.187Z,5.75
2019-04-20T15:50:26.083Z,6.33
2019-04-20T15:53:00.058Z,6.33
2019-04-20T15:55:37.439Z,5.80
2019-04-20T15:58:06.523Z,6.42
2019-04-20T16:00:38.426Z,5.60
2019-04-20T16:03:35.056Z,5.22
2019-04-20T16:06:09.460Z,5.17
2019-04-20T16:08:44.073Z,4.28
2019-04-20T16:11:15.632Z,6.83
2019-04-20T16:13:50.470Z,7.15
2019-04-20T16:16:21.708Z,6.60
2019-04-20T16:18:54.911Z,6.47
2019-04-20T16:21:30.228Z,5.35
2019-04-20T16:24:06.534Z,5.25
2019-04-20T16:26:57.813Z,5.65
2019-04-20T16:29:29.681Z,5.00
2019-04-20T16:32:02.509Z,6.22
2019-04-20T16:34:36.664Z,4.08
2019-04-20T16:37:08.640Z,7.25
2019-04-20T16:39:40.736Z,9.95
2019-04-20T16:42:14.240Z,7.70
2019-04-20T16:44:47.222Z,6.67
2019-04-20T16:47:19.433Z,7.45
2019-04-20T16:49:51.052Z,7.92
2019-04-20T16:52:23.149Z,9.13
2019-04-20T16:54:55.611Z,9.10
2019-04-20T16:57:27.888Z,12.00
2019-04-20T17:00:01.332Z,18.87
2019-04-20T17:02:36.094Z,40.23
2019-04-20T17:05:09.209Z,46.37
2019-04-20T17:07:44.898Z,49.08
2019-04-20T17:10:20.205Z,26.97
2019-04-20T17:12:53.672Z,32.30
2019-04-20T17:15:26.025Z,22.40
2019-04-20T17:17:58.913Z,28.25
2019-04-20T17:20:30.718Z,17.87
2019-04-20T17:23:05.577Z,19.92
2019-04-20T17:25:35.987Z,17.37
2019-04-20T17:28:29.417Z,12.70
2019-04-20T17:31:19.937Z,10.05
2019-04-20T17:34:20.582Z,9.00
2019-04-20T17:36:39.782Z,9.18
2019-04-20T17:39:13.988Z,14.23
2019-04-20T17:42:03.061Z,16.17
2019-04-20T17:47:00.653Z,18.07
2019-04-20T17:49:34.172Z,25.97
2019-04-20T17:52:22.313Z,21.40
2019-04-20T17:54:40.158Z,15.85
2019-04-20T17:57:12.980Z,26.80
2019-04-20T18:02:59.324Z,21.27
2019-04-20T18:05:38.895Z,29.52
2019-04-20T18:08:15.435Z,54.53
2019-04-20T18:10:38.151Z,55.78
2019-04-20T18:13:09.369Z,27.60
2019-04-20T18:15:48.880Z,38.00
2019-04-20T18:18:40.866Z,39.08
2019-04-20T18:21:24.351Z,39.18
2019-04-20T18:23:56.402Z,46.05
2019-04-20T18:26:50.185Z,47.33
2019-04-20T18:29:23.936Z,57.55
2019-04-20T18:32:07.335Z,59.03
2019-04-20T18:35:01.714Z,48.23
2019-04-20T18:37:32.767Z,47.33
2019-04-20T18:40:11.111Z,57.50
2019-04-20T18:42:43.451Z,64.82
2019-04-20T18:45:30.958Z,104.30
2019-04-20T18:48:06.547Z,89.20
2019-04-20T18:50:28.874Z,89.07
2019-04-20T18:52:54.055Z,106.75
2019-04-20T18:55:33.265Z,77.80
2019-04-20T18:58:02.360Z,83.97
2019-04-20T19:00:40.791Z,86.25
2019-04-20T19:03:15.512Z,89.90
2019-04-20T19:05:42.113Z,76.30
2019-04-20T19:08:15.773Z,63.95
2019-04-20T19:10:55.585Z,46.70
2019-04-20T19:13:36.343Z,38.20
2019-04-20T19:16:25.225Z,19.23
2019-04-20T19:19:21.257Z,22.37
2019-04-20T19:21:41.758Z,27.02
2019-04-20T19:24:16.950Z,34.90
2019-04-20T19:26:51.560Z,26.17
2019-04-20T19:29:31.035Z,27.07
2019-04-20T19:32:15.820Z,26.48
2019-04-20T19:34:43.251Z,32.65
2019-04-20T19:37:14.190Z,26.45
2019-04-20T19:39:49.472Z,24.80
2019-04-20T19:42:23.173Z,26.87
2019-04-20T19:44:56.580Z,25.68
2019-04-20T19:47:41.598Z,21.75
2019-04-20T19:50:25.206Z,20.97
2019-04-20T19:52:50.436Z,20.48
2019-04-20T19:57:50.801Z,32.38
2019-04-20T20:00:06.368Z,29.02
2019-04-20T20:02:41.355Z,38.35
2019-04-20T20:07:49.350Z,41.80
2019-04-20T20:10:20.908Z,31.48
2019-04-20T20:15:32.434Z,40.40
2019-04-20T20:20:48.727Z,51.33
2019-04-20T20:23:05.580Z,50.03
2019-04-20T20:25:42.458Z,49.38
2019-04-20T20:28:18.842Z,84.00
2019-04-20T20:30:56.898Z,43.25
2019-04-20T20:33:37.928Z,35.92
2019-04-20T20:36:01.995Z,39.08
2019-04-20T20:38:31.586Z,44.50
2019-04-20T20:41:10.065Z,36.40
2019-04-20T20:43:47.455Z,33.02
2019-04-20T20:46:17.199Z,41.65
2019-04-20T20:49:03.350Z,39.35
2019-04-20T20:51:38.748Z,29.40
2019-04-20T20:53:56.496Z,22.75
2019-04-20T20:56:27.404Z,25.02
2019-04-20T21:01:26.513Z,22.73
2019-04-20T21:04:00.595Z,26.17
2019-04-20T21:06:32.836Z,30.37
2019-04-20T21:09:06.222Z,27.02
2019-04-20T21:11:40.204Z,18.17
2019-04-20T21:14:19.959Z,13.10
2019-04-20T21:16:53.414Z,12.13
2019-04-20T21:19:33.993Z,17.57
2019-04-20T21:22:02.161Z,15.68
2019-04-20T21:24:34.036Z,26.85
2019-04-20T21:27:11.231Z,29.67
2019-04-20T21:29:44.385Z,34.08
2019-04-20T21:32:15.897Z,19.65
2019-04-20T21:34:51.708Z,25.90
2019-04-20T21:37:23.319Z,17.77
2019-04-20T21:39:59.009Z,18.02
2019-04-20T21:42:28.481Z,17.48
2019-04-20T21:45:09.467Z,16.75
2019-04-20T21:47:36.329Z,13.80
2019-04-20T21:50:27.120Z,17.00
2019-04-20T21:52:45.125Z,16.57
2019-04-20T21:55:14.529Z,20.48
2019-04-20T21:57:51.603Z,17.23
2019-04-20T22:00:44.594Z,14.95
2019-04-20T22:03:15.473Z,15.63
2019-04-20T22:05:48.502Z,16.50
2019-04-20T22:08:20.264Z,17.48
2019-04-20T22:10:53.396Z,22.05
2019-04-20T22:13:31.106Z,21.40
2019-04-20T22:16:05.200Z,19.52
2019-04-20T22:18:46.348Z,42.20
2019-04-20T22:21:16.698Z,48.98
2019-04-20T22:23:58.968Z,43.52
2019-04-20T22:26:26.600Z,33.90
2019-04-20T22:28:46.321Z,24.65
2019-04-20T22:31:18.408Z,21.82
2019-04-20T22:33:50.672Z,15.23
2019-04-20T22:36:26.051Z,13.20
2019-04-20T22:39:15.652Z,12.50
2019-04-20T22:42:00.256Z,15.10
2019-04-20T22:44:30.751Z,14.63
2019-04-20T22:47:05.526Z,18.40
2019-04-20T22:49:49.757Z,16.35
2019-04-20T22:54:54.748Z,15.03
2019-04-20T22:57:31.909Z,16.73
2019-04-20T22:59:56.881Z,16.23
2019-04-20T23:04:53.389Z,19.87
2019-04-20T23:07:26.467Z,19.05
2019-04-20T23:10:01.577Z,14.90
2019-04-20T23:12:32.234Z,15.10
2019-04-20T23:15:05.815Z,13.03
2019-04-20T23:17:42.152Z,11.43
2019-04-20T23:20:17.274Z,17.20
2019-04-20T23:22:47.727Z,18.62
2019-04-20T23:25:18.088Z,22.93
2019-04-20T23:27:52.373Z,12.40
2019-04-20T23:30:28.995Z,8.08
2019-04-20T23:32:57.901Z,8.85
2019-04-20T23:35:30.328Z,11.08
2019-04-20T23:38:11.045Z,9.88
2019-04-20T23:40:37.451Z,11.43
2019-04-20T23:43:24.482Z,10.45
2019-04-20T23:46:29.639Z,14.73
2019-04-20T23:49:54.380Z,8.28
2019-04-20T23:52:36.193Z,11.68
2019-04-20T23:54:53.870Z,11.05
2019-04-20T23:57:17.875Z,10.45
2019-04-20T23:59:50.284Z,9.65
